Terminal Aerodrome Forecast
Issued by NWS Central Illinois

Home | Current Version | Previous Version | Text Only | Print | Product List | Glossary On
Versions: 1 2 3 4 5 6 7 8 9 10 11 12 13 14 15 16 17 18 19 20 21 22 23 24 25
000
FTUS43 KILX 270800 AAA
TAFSPI
TAF AMD
KSPI 270831Z 2709/2806 33006KT P6SM BKN035 OVC060
     FM271200 35008KT P6SM OVC025
     FM271800 02006KT P6SM SCT006 OVC015
     FM280200 VRB03KT P6SM BKN030=

USA.gov is the U.S. government's official web portal to all federal, state and local government web resources and services.